Terminal Aerodrome Forecast
Issued by NWS Atlanta, GA

Home | Current Version | Previous Version | Text Only | Print | Product List | Glossary On
Versions: 1 2 3 4 5 6 7 8 9 10 11 12 13 14 15 16 17 18
000
FTUS42 KFFC 012323
TAFMCN
TAF
KMCN 012323Z 0200/0224 23008KT P6SM VCSH OVC040
     FM020200 24005KT P6SM BKN050 BKN250
     FM021400 22006KT P6SM SCT050 BKN150
     FM021600 22008KT P6SM SCT040 BKN150
     FM021800 21008KT P6SM VCSH SCT040=

USA.gov is the U.S. government's official web portal to all federal, state and local government web resources and services.